Fort Franklin, Canada
Current Conditions -  °F | °C
As of 9:00 AM on Wednesday 26 Nov 2014 (Local Time) from CYVQ Reporting Station
Light Snow Light Snow  
Wind Chill: -23°   Ceiling: 9000
Heat Index: -2°   Visibility: 15mi
Dew Point: -9°   Wind: 16mph
Humidity: 71%   Direction: 290°WNW
Pressure: 30.62"   Gusts: NA
Location:  65.19°N, 123.42°W
Report Text: CYVQ 261600Z 29014KT 15SM -SN DRSN SCT050 BKN090 M19/M23 A3062 RMK SC3AC2 SLP381
Loading
Personal Weather Stations






























Interactive Weather Map New forecast layout! Learn more

10-Day Weather Forecast

Advertisements
Track Severe Weather on mobile